WetterOnline ( https://www.wetteronline.de )

Wetter aktuell Ellscheid

Aktuelles Wetter: Nürburg-Barweiler (488m)

6-stündlich | Neueste Meldungen
Ortszeit Temperatur Wetter
Fr, 18.10. 8:00 11.9° C bewölkt
Fr, 18.10. 2:00 11.2° C bewölkt
Do, 17.10. 20:00 11.9° C Sprühregen
Do, 17.10. 14:00 13.0° C bedeckt
Do, 17.10. 8:00 11.8° C bewölkt
Do, 17.10. 2:00 11.4° C bedeckt
Mi, 16.10. 20:00 11.3° C Sprühregen
Mi, 16.10. 14:00 10.3° C leichter Regen
Ortszeit Temperatur Wetter
Fr, 18.10. 11:00 12.4° C bewölkt
Fr, 18.10. 10:50 12.4° C bewölkt
Fr, 18.10. 10:40 12.3° C bewölkt
Fr, 18.10. 10:30 12.4° C bewölkt
Fr, 18.10. 10:20 12.4° C bewölkt
Fr, 18.10. 10:10 12.3° C Sprühregen
Fr, 18.10. 10:00 12.3° C bedeckt
Fr, 18.10. 9:30 12.3° C bewölkt
Fr, 18.10. 9:00 12.1° C bedeckt
Fr, 18.10. 8:30 12.1° C bewölkt
Fr, 18.10. 8:00 11.9° C bewölkt
Ortszeit Relative Feuchte Sichtweite
Fr, 18.10. 8:00 89% 60 km
Fr, 18.10. 2:00 89% 70 km
Do, 17.10. 20:00 97% 6 km
Do, 17.10. 14:00 88% 55 km
Do, 17.10. 8:00 92% 26 km
Do, 17.10. 2:00 87% 55 km
Mi, 16.10. 20:00 95% 20 km
Mi, 16.10. 14:00 95% -
Ortszeit Relative Feuchte Sichtweite
Fr, 18.10. 11:00 85% 45 km
Fr, 18.10. 10:50 85% -
Fr, 18.10. 10:40 84% -
Fr, 18.10. 10:30 83% 55 km
Fr, 18.10. 10:20 83% -
Fr, 18.10. 10:10 84% -
Fr, 18.10. 10:00 85% 55 km
Fr, 18.10. 9:30 85% 50 km
Fr, 18.10. 9:00 88% 65 km
Fr, 18.10. 8:30 88% 50 km
Fr, 18.10. 8:00 89% 60 km
Ortszeit Niederschlagsmenge Niederschlagsart
Fr, 18.10. 8:00 0.4 l/m2 in 12 Std. Regen
Fr, 18.10. 2:00 0.3 l/m2 in 6 Std. Regen
Do, 17.10. 20:00 0.6 l/m2 in 12 Std. Regen
Do, 17.10. 14:00 0.1 l/m2 in 6 Std. Regen
Do, 17.10. 8:00 0.1 l/m2 in 12 Std. Regen
Do, 17.10. 2:00 0.1 l/m2 in 6 Std. Regen
Mi, 16.10. 20:00 2 l/m2 in 12 Std. Regen
Mi, 16.10. 14:00 1 l/m2 in 6 Std. -
Ortszeit Niederschlagsmenge Niederschlagsart
Fr, 18.10. 11:00 0.1 l/m2 in 1 Std. Regen
Fr, 18.10. 10:50 keine Meldung -
Fr, 18.10. 10:40 keine Meldung -
Fr, 18.10. 10:30 0.1 l/m2 in 1 Std. Schneeregen
Fr, 18.10. 10:20 keine Meldung -
Fr, 18.10. 10:10 keine Meldung -
Fr, 18.10. 10:00 0.1 l/m2 in 1 Std. Sprühregen
Fr, 18.10. 9:30 0.0 l/m2 in 1 Std. -
Fr, 18.10. 9:00 0.0 l/m2 in 1 Std. -
Fr, 18.10. 8:30 0.0 l/m2 in 1 Std. -
Fr, 18.10. 8:00 0.1 l/m2 in 1 Std. Regen
Ortszeit Stärke Spitze Richtung
km/h Bft. km/h Grad Sektor
Fr, 18.10. 8:00 17 3 41 200° S
Fr, 18.10. 2:00 9 2 31 200° S
Do, 17.10. 20:00 14 3 32 190° S
Do, 17.10. 14:00 14 3 36 200° S
Do, 17.10. 8:00 18 3 36 220° SW
Do, 17.10. 2:00 18 3 36 200° S
Mi, 16.10. 20:00 14 3 47 220° SW
Mi, 16.10. 14:00 17 3 37 200° S
Ortszeit Stärke Spitze Richtung
km/h Bft. km/h Grad Sektor
Fr, 18.10. 11:00 18 3 47 200° S
Fr, 18.10. 10:50 18 3 - 200° S
Fr, 18.10. 10:40 18 3 - 200° S
Fr, 18.10. 10:30 18 3 47 200° S
Fr, 18.10. 10:20 18 3 - 200° S
Fr, 18.10. 10:10 18 3 - 200° S
Fr, 18.10. 10:00 18 3 47 200° S
Fr, 18.10. 9:30 18 3 36 200° S
Fr, 18.10. 9:00 20 4 41 210° SW
Fr, 18.10. 8:30 18 3 40 200° S
Fr, 18.10. 8:00 17 3 35 200° S
Ortszeit Untergrenze Bedeckung Gattung
total tief tief mittel hoch
Fr, 18.10. 8:00 420 m 7/8 7/8 - - -
Fr, 18.10. 2:00 660 m 7/8 7/8 - - -
Do, 17.10. 20:00 210 m 8/8 8/8 - - -
Do, 17.10. 14:00 270 m 8/8 8/8 - - -
Do, 17.10. 8:00 270 m 7/8 7/8 - - -
Do, 17.10. 2:00 870 m 8/8 8/8 - - -
Mi, 16.10. 20:00 270 m 7/8 8/8 - - -
Mi, 16.10. 14:00 240 m 8/8 8/8 - - -
Ortszeit Bedeckungsgrad in Achtel und Wolkenuntergrenze
Fr, 18.10. 11:00 3(480m) 7(780m) 7(1170m)
Fr, 18.10. 10:50 3(480m) 7(780m) 7(1170m)
Fr, 18.10. 10:40 5(510m) 7(840m) 7(2100m)
Fr, 18.10. 10:30 4(510m) 7(1170m) 7(2100m)
Fr, 18.10. 10:20 4(510m) 7(1170m) 7(2100m)
Fr, 18.10. 10:10 6(600m) 7(1080m) 7(1500m)
Fr, 18.10. 10:00 3(480m) 7(1080m) 8(2100m)
Fr, 18.10. 9:30 4(510m) 6(2400m) 7(6600m)
Fr, 18.10. 9:00 4(390m) 7(540m) 8(1080m)
Fr, 18.10. 8:30 7(480m) 7(690m) 7(960m)
Fr, 18.10. 8:00 3(420m) 7(540m) 7(1440m)
Ortszeit Luftdruck NN (hPa) Tendenz (hPa in 3 Std.)
Fr, 18.10. 8:00 1008 - 1,7
Fr, 18.10. 2:00 1011 - 0,2
Do, 17.10. 20:00 1011 - 0,3
Do, 17.10. 14:00 1012 - 0,3
Do, 17.10. 8:00 1011 + 0,4
Do, 17.10. 2:00 1011 - 0,1
Mi, 16.10. 20:00 1011 + 0,7
Mi, 16.10. 14:00 1011 - 1,1
Ortszeit Luftdruck NN (hPa) Tendenz (hPa in 3 Std.)
Fr, 18.10. 11:00 1007 - 0,6
Fr, 18.10. 10:50 1007 keine Meldung
Fr, 18.10. 10:40 1007 keine Meldung
Fr, 18.10. 10:30 1007 - 0,8
Fr, 18.10. 10:20 1007 keine Meldung
Fr, 18.10. 10:10 1007 keine Meldung
Fr, 18.10. 10:00 1008 - 0,8
Fr, 18.10. 9:30 1007 - 1,1
Fr, 18.10. 9:00 1008 - 0,9
Fr, 18.10. 8:30 1008 - 1,1
Fr, 18.10. 8:00 1008 - 1,7
Ortszeit Schneehöhe (cm)
Fr, 18.10. 8:00 0
Fr, 18.10. 2:00 -
Do, 17.10. 20:00 -
Do, 17.10. 14:00 -
Do, 17.10. 8:00 -
Do, 17.10. 2:00 -
Mi, 16.10. 20:00 -
Mi, 16.10. 14:00 -
Ortszeit Schneehöhe (cm)
Fr, 18.10. 11:00 -
Fr, 18.10. 10:50 -
Fr, 18.10. 10:40 -
Fr, 18.10. 10:30 0
Fr, 18.10. 10:20 0
Fr, 18.10. 10:10 -
Fr, 18.10. 10:00 -
Fr, 18.10. 9:30 0
Fr, 18.10. 9:00 -
Fr, 18.10. 8:30 -
Fr, 18.10. 8:00 0
Link zu dieser Seite / Seite empfehlen

Das Wetter in ...